createdAt,value
2023-01-19T00:01:51.834Z,28.01
2023-01-19T00:04:21.699Z,28.03
2023-01-19T00:06:51.793Z,28.02
2023-01-19T00:09:21.768Z,27.99
2023-01-19T00:11:51.707Z,28.01
2023-01-19T00:14:21.791Z,28.02
2023-01-19T00:16:51.695Z,28.02
2023-01-19T00:19:21.560Z,28.03
2023-01-19T00:21:51.513Z,28.01
2023-01-19T00:24:21.414Z,27.99
2023-01-19T00:26:51.527Z,27.99
2023-01-19T00:29:22.604Z,28.00
2023-01-19T00:31:53.225Z,28.00
2023-01-19T00:34:23.225Z,27.92
2023-01-19T00:36:53.087Z,27.88
2023-01-19T00:39:23.223Z,27.96
2023-01-19T00:42:11.441Z,28.01
2023-01-19T00:44:41.658Z,28.01
2023-01-19T00:47:12.026Z,27.99
2023-01-19T00:49:43.299Z,27.93
2023-01-19T00:52:13.398Z,28.01
2023-01-19T00:54:43.268Z,28.03
2023-01-19T00:57:13.323Z,27.95
2023-01-19T00:59:43.291Z,27.95
2023-01-19T01:02:13.753Z,28.04
2023-01-19T01:04:43.906Z,28.05
2023-01-19T01:07:13.844Z,28.07
2023-01-19T01:09:43.709Z,28.03
2023-01-19T01:12:13.704Z,28.06
2023-01-19T01:14:43.636Z,28.04
2023-01-19T01:17:16.663Z,27.97
2023-01-19T01:19:46.883Z,28.02
2023-01-19T01:22:16.845Z,28.08
2023-01-19T01:24:48.000Z,28.07
2023-01-19T01:27:18.062Z,28.09
2023-01-19T01:29:50.767Z,28.04
2023-01-19T01:32:20.930Z,28.05
2023-01-19T01:34:50.854Z,28.09
2023-01-19T01:37:20.732Z,28.11
2023-01-19T01:39:50.660Z,28.06
2023-01-19T01:42:22.408Z,28.04
2023-01-19T01:44:55.703Z,28.05
2023-01-19T01:47:49.013Z,28.09
2023-01-19T01:50:24.987Z,28.07
2023-01-19T01:53:07.527Z,28.09
2023-01-19T01:55:44.532Z,28.13
2023-01-19T01:58:16.279Z,28.09
2023-01-19T02:01:05.116Z,28.08
2023-01-19T02:03:35.370Z,28.13
2023-01-19T02:06:09.460Z,28.09
2023-01-19T02:09:14.424Z,28.10
2023-01-19T02:12:03.287Z,28.12
2023-01-19T02:14:33.437Z,28.12
2023-01-19T02:17:03.889Z,28.13
2023-01-19T02:19:42.077Z,28.17
2023-01-19T02:22:38.196Z,28.18
2023-01-19T02:25:09.000Z,28.20
2023-01-19T02:27:40.036Z,28.21
2023-01-19T02:30:12.197Z,28.18
2023-01-19T02:32:42.239Z,28.21
2023-01-19T02:35:13.718Z,28.19
2023-01-19T02:37:46.304Z,28.20
2023-01-19T02:40:22.378Z,28.20
2023-01-19T02:42:54.926Z,28.21
2023-01-19T02:45:26.213Z,28.21
2023-01-19T02:47:56.407Z,28.22
2023-01-19T02:50:38.757Z,28.23
2023-01-19T02:53:27.773Z,28.26
2023-01-19T02:56:12.857Z,28.27
2023-01-19T02:58:48.586Z,28.27
2023-01-19T03:01:32.547Z,28.29
2023-01-19T03:04:25.268Z,28.29
2023-01-19T03:07:06.160Z,28.29
2023-01-19T03:09:40.616Z,28.31
2023-01-19T03:12:19.605Z,28.31
2023-01-19T03:14:50.715Z,28.31
2023-01-19T03:17:21.815Z,28.32
2023-01-19T03:19:56.501Z,28.32
2023-01-19T03:22:32.197Z,28.33
2023-01-19T03:25:05.325Z,28.33
2023-01-19T03:27:43.519Z,28.34
2023-01-19T03:30:25.107Z,28.36
2023-01-19T03:32:57.121Z,28.37
2023-01-19T03:35:31.464Z,28.37
2023-01-19T03:38:05.131Z,28.38
2023-01-19T03:40:37.039Z,28.38
2023-01-19T03:43:08.878Z,28.39
2023-01-19T03:45:41.877Z,28.40
2023-01-19T03:48:12.637Z,28.39
2023-01-19T03:50:42.825Z,28.41
2023-01-19T03:53:17.575Z,28.41
2023-01-19T03:55:52.939Z,28.43
2023-01-19T03:58:24.523Z,28.44
2023-01-19T04:00:54.544Z,28.46
2023-01-19T04:03:25.089Z,28.43
2023-01-19T04:05:55.374Z,28.44
2023-01-19T04:08:25.711Z,28.43
2023-01-19T04:10:56.813Z,28.47
2023-01-19T04:13:29.441Z,28.48
2023-01-19T04:16:03.936Z,28.48
2023-01-19T04:18:35.921Z,28.46
2023-01-19T04:21:09.030Z,28.48
2023-01-19T04:23:39.290Z,28.49
2023-01-19T04:26:11.168Z,28.49
2023-01-19T04:28:41.935Z,28.53
2023-01-19T04:31:13.526Z,28.53
2023-01-19T04:33:44.062Z,28.54
2023-01-19T04:36:14.122Z,28.53
2023-01-19T04:38:44.278Z,28.54
2023-01-19T04:41:14.179Z,28.54
2023-01-19T04:43:44.139Z,28.54
2023-01-19T04:46:14.078Z,28.56
2023-01-19T04:48:43.997Z,28.56
2023-01-19T04:51:13.999Z,28.56
2023-01-19T04:53:43.981Z,28.57
2023-01-19T04:56:14.562Z,28.58
2023-01-19T04:58:44.703Z,28.57
2023-01-19T05:01:15.227Z,28.58
2023-01-19T05:03:45.409Z,28.60
2023-01-19T05:06:15.526Z,28.58
2023-01-19T05:08:45.639Z,28.60
2023-01-19T05:11:15.628Z,28.62
2023-01-19T05:13:45.501Z,28.62
2023-01-19T05:16:16.294Z,28.62
2023-01-19T05:18:46.410Z,28.61
2023-01-19T05:21:16.773Z,28.63
2023-01-19T05:23:46.933Z,28.63
2023-01-19T05:26:17.149Z,28.63
2023-01-19T05:28:47.342Z,28.60
2023-01-19T05:31:18.786Z,28.64
2023-01-19T05:33:50.434Z,28.64
2023-01-19T05:36:20.372Z,28.65
2023-01-19T05:38:51.651Z,28.67
2023-01-19T05:41:21.976Z,28.68
2023-01-19T05:43:51.918Z,28.67
2023-01-19T05:46:21.899Z,28.68
2023-01-19T05:48:51.759Z,28.70
2023-01-19T05:51:23.012Z,28.68
2023-01-19T05:53:53.206Z,28.71
2023-01-19T05:56:23.384Z,28.69
2023-01-19T05:58:53.448Z,28.69
2023-01-19T06:01:23.755Z,28.70
2023-01-19T06:03:53.766Z,28.70
2023-01-19T06:06:23.874Z,28.71
2023-01-19T06:08:54.544Z,28.69
2023-01-19T06:11:24.811Z,28.72
2023-01-19T06:13:54.938Z,28.73
2023-01-19T06:16:24.979Z,28.72
2023-01-19T06:18:55.903Z,28.73
2023-01-19T06:21:26.358Z,28.74
2023-01-19T06:23:56.457Z,28.74
2023-01-19T06:26:26.408Z,28.74
2023-01-19T06:28:56.315Z,28.77
2023-01-19T06:31:26.260Z,28.79
2023-01-19T06:33:56.160Z,28.79
2023-01-19T06:36:26.076Z,28.80
2023-01-19T06:38:55.933Z,28.81
2023-01-19T06:41:25.888Z,28.82
2023-01-19T06:43:55.776Z,28.83
2023-01-19T06:46:25.678Z,28.83
2023-01-19T06:48:56.892Z,28.82
2023-01-19T06:51:26.703Z,28.84
2023-01-19T06:53:56.660Z,28.85
2023-01-19T06:56:27.183Z,28.83
2023-01-19T06:58:58.039Z,28.86
2023-01-19T07:01:29.082Z,28.84
2023-01-19T07:04:00.533Z,28.85
2023-01-19T07:06:30.620Z,28.83
2023-01-19T07:09:02.537Z,28.85
2023-01-19T07:11:33.964Z,28.83
2023-01-19T07:14:04.208Z,28.83
2023-01-19T07:16:34.479Z,28.83
2023-01-19T07:19:04.860Z,28.83
2023-01-19T07:21:35.383Z,28.85
2023-01-19T07:24:05.352Z,28.87
2023-01-19T07:26:35.492Z,28.85
2023-01-19T07:29:05.377Z,28.89
2023-01-19T07:31:35.574Z,28.88
2023-01-19T07:34:06.113Z,28.89
2023-01-19T07:36:36.143Z,28.88
2023-01-19T07:39:06.152Z,28.89
2023-01-19T07:41:36.125Z,28.90
2023-01-19T07:44:10.910Z,28.89
2023-01-19T07:46:40.979Z,28.90
2023-01-19T07:49:11.346Z,28.89
2023-01-19T07:51:41.395Z,28.87
2023-01-19T07:54:11.305Z,28.88
2023-01-19T07:56:41.319Z,28.91
2023-01-19T07:59:12.579Z,28.89
2023-01-19T08:01:42.918Z,28.88
2023-01-19T08:04:13.285Z,28.88
2023-01-19T08:06:47.060Z,28.90
2023-01-19T08:09:17.183Z,28.92
2023-01-19T08:11:47.150Z,28.92
2023-01-19T08:14:16.988Z,28.93
2023-01-19T08:16:47.855Z,28.92
2023-01-19T08:19:17.880Z,28.91
2023-01-19T08:21:48.700Z,28.94
2023-01-19T08:24:30.720Z,28.94
2023-01-19T08:27:02.809Z,28.94
2023-01-19T08:29:34.018Z,28.93
2023-01-19T08:32:05.278Z,28.94
2023-01-19T08:34:35.256Z,28.96
2023-01-19T08:37:05.423Z,28.95
2023-01-19T08:39:36.456Z,28.92
2023-01-19T08:42:06.589Z,28.96
2023-01-19T08:44:43.784Z,28.94
2023-01-19T08:47:19.931Z,28.96
2023-01-19T08:49:50.110Z,28.97
2023-01-19T08:52:19.972Z,28.98
2023-01-19T08:54:49.973Z,28.98
2023-01-19T08:57:20.905Z,28.98
2023-01-19T08:59:51.199Z,28.98
2023-01-19T09:02:21.184Z,29.00
2023-01-19T09:04:52.056Z,28.99
2023-01-19T09:07:22.173Z,29.00
2023-01-19T09:09:52.087Z,28.99
2023-01-19T09:12:22.197Z,29.00
2023-01-19T09:14:52.147Z,28.99
2023-01-19T09:17:22.153Z,28.99
2023-01-19T09:19:52.049Z,29.00
2023-01-19T09:22:22.112Z,29.00
2023-01-19T09:24:52.311Z,29.01
2023-01-19T09:27:22.383Z,29.00
2023-01-19T09:29:54.765Z,29.00
2023-01-19T09:32:25.184Z,29.00
2023-01-19T09:34:57.245Z,29.02
2023-01-19T09:37:27.194Z,29.02
2023-01-19T09:39:57.537Z,29.03
2023-01-19T09:42:41.246Z,29.04
2023-01-19T09:45:37.296Z,29.05
2023-01-19T09:48:15.723Z,29.04
2023-01-19T09:50:49.517Z,29.07
2023-01-19T09:53:34.017Z,29.05
2023-01-19T09:56:04.235Z,29.05
2023-01-19T09:58:34.147Z,29.05
2023-01-19T10:01:15.446Z,29.02
2023-01-19T10:03:45.655Z,29.04
2023-01-19T10:06:16.924Z,29.04
2023-01-19T10:09:07.446Z,29.05
2023-01-19T10:11:53.290Z,29.06
2023-01-19T10:15:03.755Z,29.05
2023-01-19T10:18:05.680Z,29.07
2023-01-19T10:20:43.738Z,29.05
2023-01-19T10:23:54.515Z,29.07
2023-01-19T10:26:26.331Z,29.07
2023-01-19T10:29:04.173Z,29.06
2023-01-19T10:31:36.685Z,29.05
2023-01-19T10:34:06.795Z,29.05
2023-01-19T10:36:39.592Z,29.05
2023-01-19T10:39:14.580Z,29.03
2023-01-19T10:41:53.627Z,29.05
2023-01-19T10:44:36.313Z,29.05
2023-01-19T10:47:09.295Z,29.02
2023-01-19T10:49:44.733Z,29.03
2023-01-19T10:52:39.144Z,29.05
2023-01-19T10:55:22.420Z,29.07
2023-01-19T10:57:55.208Z,29.08
2023-01-19T11:00:39.896Z,29.08
2023-01-19T11:03:32.256Z,29.09
2023-01-19T11:06:23.358Z,29.09
2023-01-19T11:08:55.589Z,29.05
2023-01-19T11:11:26.954Z,29.09
2023-01-19T11:14:13.013Z,29.07
2023-01-19T11:16:48.458Z,29.08
2023-01-19T11:19:24.063Z,29.07
2023-01-19T11:21:54.743Z,29.07
2023-01-19T11:24:26.025Z,29.07
2023-01-19T11:27:05.820Z,29.08
2023-01-19T11:29:35.961Z,29.05
2023-01-19T11:32:24.524Z,29.05
2023-01-19T11:34:55.883Z,29.05
2023-01-19T11:37:36.675Z,29.04
2023-01-19T11:40:11.765Z,29.05
2023-01-19T11:42:43.065Z,29.06
2023-01-19T11:45:20.223Z,29.06
2023-01-19T11:47:53.936Z,29.06
2023-01-19T11:50:40.235Z,29.04
2023-01-19T11:53:21.741Z,29.04
2023-01-19T11:56:06.853Z,29.03
2023-01-19T11:58:50.857Z,29.02
2023-01-19T12:01:50.034Z,29.02
2023-01-19T12:04:29.745Z,29.01
2023-01-19T12:07:01.543Z,29.02
2023-01-19T12:09:38.397Z,28.99
2023-01-19T12:12:26.281Z,28.98
2023-01-19T12:15:24.524Z,28.98
2023-01-19T12:18:00.622Z,28.97
2023-01-19T12:20:39.668Z,29.00
2023-01-19T12:23:12.240Z,29.00
2023-01-19T12:26:21.847Z,29.01
2023-01-19T12:28:53.736Z,28.99
2023-01-19T12:31:25.813Z,28.99
2023-01-19T12:33:56.207Z,29.00
2023-01-19T12:36:38.792Z,28.99
2023-01-19T12:39:24.189Z,28.98
2023-01-19T12:42:21.294Z,28.96
2023-01-19T12:44:55.537Z,28.97
2023-01-19T12:47:26.459Z,28.97
2023-01-19T12:50:02.666Z,28.97
2023-01-19T12:52:37.781Z,28.98
2023-01-19T12:55:16.770Z,28.97
2023-01-19T12:58:17.344Z,28.96
2023-01-19T13:00:50.643Z,28.94
2023-01-19T13:03:20.825Z,28.99
2023-01-19T13:05:58.228Z,28.98
2023-01-19T13:08:32.619Z,29.00
2023-01-19T13:11:02.650Z,29.01
2023-01-19T13:18:05.865Z,28.96
2023-01-19T13:21:24.627Z,28.97
2023-01-19T13:24:02.411Z,28.93
2023-01-19T13:27:01.232Z,28.94
2023-01-19T13:29:38.188Z,28.95
2023-01-19T13:32:24.421Z,28.97
2023-01-19T13:35:02.580Z,28.97
2023-01-19T13:37:48.017Z,28.97
2023-01-19T13:40:27.974Z,28.95
2023-01-19T13:43:02.239Z,28.97
2023-01-19T13:45:37.174Z,28.98
2023-01-19T13:48:13.722Z,28.95
2023-01-19T13:51:01.913Z,28.96
2023-01-19T13:53:35.404Z,28.94
2023-01-19T13:56:25.412Z,28.94
2023-01-19T13:59:10.110Z,28.90
2023-01-19T14:01:48.345Z,28.89
2023-01-19T14:04:50.091Z,28.91
2023-01-19T14:07:30.118Z,28.93
2023-01-19T14:10:09.319Z,28.87
2023-01-19T14:12:58.165Z,28.89
2023-01-19T14:15:34.997Z,28.86
2023-01-19T14:18:28.926Z,28.84
2023-01-19T14:21:34.872Z,28.80
2023-01-19T14:24:33.979Z,28.82
2023-01-19T14:27:23.839Z,28.84
2023-01-19T14:30:23.902Z,28.85
2023-01-19T14:33:01.964Z,28.86
2023-01-19T14:35:35.827Z,28.89
2023-01-19T14:38:11.610Z,28.90
2023-01-19T14:40:45.143Z,28.89
2023-01-19T14:43:18.847Z,28.88
2023-01-19T14:45:52.185Z,28.90
2023-01-19T14:48:26.321Z,28.88
2023-01-19T14:51:07.606Z,28.91
2023-01-19T14:53:43.509Z,28.89
2023-01-19T14:56:28.622Z,28.92
2023-01-19T14:59:07.076Z,28.93
2023-01-19T15:01:40.819Z,28.92
2023-01-19T15:04:14.015Z,28.94
2023-01-19T15:06:49.422Z,28.91
2023-01-19T15:09:22.872Z,28.89
2023-01-19T15:11:56.962Z,28.87
2023-01-19T15:14:33.388Z,28.85
2023-01-19T15:17:06.358Z,28.84
2023-01-19T15:19:39.969Z,28.84
2023-01-19T15:22:18.234Z,28.81
2023-01-19T15:24:49.802Z,28.85
2023-01-19T15:27:29.922Z,28.85
2023-01-19T15:30:01.937Z,28.81
2023-01-19T15:32:32.514Z,28.79
2023-01-19T15:35:02.756Z,28.78
2023-01-19T15:37:33.010Z,28.80
2023-01-19T15:40:02.973Z,28.76
2023-01-19T15:42:33.003Z,28.72
2023-01-19T15:45:03.088Z,28.73
2023-01-19T15:47:33.095Z,28.70
2023-01-19T15:50:03.106Z,28.70
2023-01-19T15:52:33.184Z,28.70
2023-01-19T15:55:03.192Z,28.69
2023-01-19T15:57:33.214Z,28.72
2023-01-19T16:00:05.973Z,28.68
2023-01-19T16:02:40.416Z,28.70
2023-01-19T16:05:11.286Z,28.68
2023-01-19T16:07:41.847Z,28.71
2023-01-19T16:10:12.585Z,28.74
2023-01-19T16:12:42.697Z,28.75
2023-01-19T16:15:14.220Z,28.66
2023-01-19T16:17:44.561Z,28.67
2023-01-19T16:20:15.296Z,28.69
2023-01-19T16:22:47.119Z,28.70
2023-01-19T16:25:17.433Z,28.66
2023-01-19T16:27:47.620Z,28.72
2023-01-19T16:30:19.196Z,28.66
2023-01-19T16:32:49.946Z,28.63
2023-01-19T16:35:20.077Z,28.68
2023-01-19T16:37:53.551Z,28.64
2023-01-19T16:40:23.823Z,28.61
2023-01-19T16:42:54.256Z,28.60
2023-01-19T16:45:24.561Z,28.62
2023-01-19T16:47:54.760Z,28.60
2023-01-19T16:50:24.916Z,28.58
2023-01-19T16:52:59.555Z,28.56
2023-01-19T16:55:29.736Z,28.54
2023-01-19T16:57:59.734Z,28.52
2023-01-19T17:00:29.703Z,28.52
2023-01-19T17:02:59.752Z,28.53
2023-01-19T17:05:30.009Z,28.53
2023-01-19T17:08:00.129Z,28.56
2023-01-19T17:10:30.133Z,28.52
2023-01-19T17:13:02.179Z,28.53
2023-01-19T17:15:33.883Z,28.50
2023-01-19T17:18:04.050Z,28.52
2023-01-19T17:20:36.335Z,28.56
2023-01-19T17:23:06.588Z,28.51
2023-01-19T17:25:36.611Z,28.51
2023-01-19T17:28:06.780Z,28.52
2023-01-19T17:30:37.277Z,28.49
2023-01-19T17:33:07.513Z,28.51
2023-01-19T17:35:38.042Z,28.52
2023-01-19T17:38:08.206Z,28.54
2023-01-19T17:40:38.206Z,28.57
2023-01-19T17:43:08.757Z,28.55
2023-01-19T17:45:39.909Z,28.58
2023-01-19T17:48:10.256Z,28.57
2023-01-19T17:50:40.533Z,28.63
2023-01-19T17:53:10.770Z,28.54
2023-01-19T17:55:40.878Z,28.54
2023-01-19T17:58:10.848Z,28.54
2023-01-19T18:00:40.789Z,28.59
2023-01-19T18:03:10.864Z,28.57
2023-01-19T18:05:40.809Z,28.54
2023-01-19T18:08:10.772Z,28.54
2023-01-19T18:10:40.892Z,28.56
2023-01-19T18:13:10.996Z,28.54
2023-01-19T18:15:41.023Z,28.54
2023-01-19T18:18:11.005Z,28.51
2023-01-19T18:20:42.325Z,28.52
2023-01-19T18:23:11.979Z,28.49
2023-01-19T18:25:42.483Z,28.48
2023-01-19T18:28:12.706Z,28.49
2023-01-19T18:30:43.027Z,28.46
2023-01-19T18:33:13.203Z,28.41
2023-01-19T18:35:43.362Z,28.46
2023-01-19T18:38:13.377Z,28.48
2023-01-19T18:40:43.489Z,28.45
2023-01-19T18:43:14.613Z,28.48
2023-01-19T18:45:44.902Z,28.41
2023-01-19T18:48:16.809Z,28.46
2023-01-19T18:50:48.293Z,28.48
2023-01-19T18:53:18.428Z,28.47
2023-01-19T18:55:56.894Z,28.46
2023-01-19T18:58:30.904Z,28.44
2023-01-19T19:01:04.393Z,28.47
2023-01-19T19:03:34.744Z,28.42
2023-01-19T19:06:06.020Z,28.45
2023-01-19T19:08:36.374Z,28.45
2023-01-19T19:11:12.059Z,28.41
2023-01-19T19:13:43.706Z,28.43
2023-01-19T19:16:15.563Z,28.45
2023-01-19T19:18:45.911Z,28.46
2023-01-19T19:21:16.581Z,28.45
2023-01-19T19:23:46.753Z,28.47
2023-01-19T19:26:16.498Z,28.50
2023-01-19T19:28:47.961Z,28.47
2023-01-19T19:31:20.145Z,28.49
2023-01-19T19:33:51.598Z,28.50
2023-01-19T19:36:22.919Z,28.44
2023-01-19T19:38:53.575Z,28.42
2023-01-19T19:41:26.297Z,28.41
2023-01-19T19:43:57.247Z,28.42
2023-01-19T19:46:29.519Z,28.38
2023-01-19T19:48:59.626Z,28.35
2023-01-19T19:51:30.547Z,28.35
2023-01-19T19:54:03.967Z,28.38
2023-01-19T19:56:36.273Z,28.38
2023-01-19T19:59:06.482Z,28.34
2023-01-19T20:01:36.746Z,28.36
2023-01-19T20:04:10.147Z,28.33
2023-01-19T20:06:43.421Z,28.38
2023-01-19T20:09:19.315Z,28.34
2023-01-19T20:11:51.228Z,28.33
2023-01-19T20:14:23.224Z,28.34
2023-01-19T20:16:55.208Z,28.34
2023-01-19T20:19:25.251Z,28.33
2023-01-19T20:21:55.294Z,28.28
2023-01-19T20:24:25.430Z,28.31
2023-01-19T20:26:55.812Z,28.28
2023-01-19T20:29:25.922Z,28.27
2023-01-19T20:31:58.473Z,28.33
2023-01-19T20:34:33.562Z,28.30
2023-01-19T20:37:06.234Z,28.27
2023-01-19T20:39:37.448Z,28.28
2023-01-19T20:42:11.813Z,28.28
2023-01-19T20:44:43.345Z,28.26
2023-01-19T20:47:13.404Z,28.27
2023-01-19T20:49:44.087Z,28.28
2023-01-19T20:52:14.159Z,28.26
2023-01-19T20:54:44.276Z,28.30
2023-01-19T20:57:14.093Z,28.29
2023-01-19T20:59:43.930Z,28.29
2023-01-19T21:02:18.199Z,28.32
2023-01-19T21:04:48.393Z,28.36
2023-01-19T21:07:18.434Z,28.37
2023-01-19T21:09:48.313Z,28.33
2023-01-19T21:12:18.842Z,28.31
2023-01-19T21:14:48.876Z,28.29
2023-01-19T21:17:18.822Z,28.30
2023-01-19T21:19:48.702Z,28.26
2023-01-19T21:22:18.644Z,28.25
2023-01-19T21:24:49.863Z,28.30
2023-01-19T21:27:19.945Z,28.26
2023-01-19T21:29:50.752Z,28.29
2023-01-19T21:32:20.830Z,28.27
2023-01-19T21:34:50.982Z,28.27
2023-01-19T21:37:21.051Z,28.22
2023-01-19T21:39:50.924Z,28.27
2023-01-19T21:42:20.801Z,28.27
2023-01-19T21:44:52.126Z,28.20
2023-01-19T21:47:22.370Z,28.24
2023-01-19T21:49:52.211Z,28.25
2023-01-19T21:52:22.416Z,28.26
2023-01-19T21:54:52.715Z,28.26
2023-01-19T21:57:22.582Z,28.20
2023-01-19T21:59:52.573Z,28.22
2023-01-19T22:02:37.731Z,28.22
2023-01-19T22:05:08.914Z,28.20
2023-01-19T22:07:40.321Z,28.20
2023-01-19T22:10:11.632Z,28.20
2023-01-19T22:12:44.819Z,28.23
2023-01-19T22:15:15.053Z,28.17
2023-01-19T22:17:45.266Z,28.15
2023-01-19T22:20:15.279Z,28.18
2023-01-19T22:22:45.610Z,28.18
2023-01-19T22:25:16.939Z,28.17
2023-01-19T22:27:46.789Z,28.19
2023-01-19T22:30:16.786Z,28.16
2023-01-19T22:32:47.096Z,28.16
2023-01-19T22:35:17.215Z,28.21
2023-01-19T22:37:47.187Z,28.22
2023-01-19T22:40:17.453Z,28.19
2023-01-19T22:42:49.246Z,28.14
2023-01-19T22:45:19.389Z,28.12
2023-01-19T22:47:49.579Z,28.13
2023-01-19T22:50:19.648Z,28.08
2023-01-19T22:52:50.101Z,28.10
2023-01-19T22:55:21.553Z,28.04
2023-01-19T22:57:51.138Z,28.10
2023-01-19T23:00:41.344Z,28.06
2023-01-19T23:03:11.384Z,27.86
2023-01-19T23:05:41.401Z,27.77
2023-01-19T23:08:11.494Z,27.67
2023-01-19T23:10:42.325Z,27.65
2023-01-19T23:13:12.294Z,27.65
2023-01-19T23:15:42.184Z,27.69
2023-01-19T23:18:12.052Z,27.73
2023-01-19T23:20:41.850Z,27.73
2023-01-19T23:23:11.657Z,27.73
2023-01-19T23:25:41.533Z,27.74
2023-01-19T23:28:11.606Z,27.76
2023-01-19T23:30:41.501Z,27.76
2023-01-19T23:33:11.900Z,27.74
2023-01-19T23:35:41.768Z,27.71
2023-01-19T23:38:12.699Z,27.74
2023-01-19T23:40:42.769Z,27.70
2023-01-19T23:43:12.573Z,27.68
2023-01-19T23:45:42.617Z,27.68
2023-01-19T23:48:12.482Z,27.66
2023-01-19T23:50:43.118Z,27.65
2023-01-19T23:53:13.121Z,27.65
2023-01-19T23:55:44.023Z,27.68
2023-01-19T23:58:14.524Z,27.65
